Rockledge, Florida
Current Conditions -  °F | °C
As of 11:58 AM on Friday 28 Nov 2014 (Local Time) from KCOF Reporting Station
Clear Clear  
Wind Chill: 60°   Ceiling: Unl
Heat Index: 60°   Visibility: 10mi
Dew Point: 48°   Wind: 13mph
Humidity: 64%   Direction: 330°NNW
Pressure: 30.28"   Gusts: NA
Location:  28.33°N, 80.73°W
Report Text: KCOF 281658Z AUTO 33011KT 10SM CLR 16/09 A3028 RMK AO2 SLP258 T01560087
Loading
Personal Weather Stations






























Interactive Weather Map New forecast layout! Learn more

10-Day Weather Forecast

Advertisements
Track Severe Weather on mobile